Time;durP1;ratioP1;P1;durP2;ratioP2;P2;SDS_P1;SDS_P2;PMS_P1;PMS_P2;Temp;Humidity;BMP_temperature;BMP_pressure;BME280_temperature;BME280_humidity;BME280_pressure;Samples;Min_cycle;Max_cycle;Signal;HPM_P1;HPM_P2
2020/12/22 00:00:15;;;;;;;8.65;7.10;;;12.80;99.90;;;;;;5126252;27;20031;-61
2020/12/22 00:02:44;;;;;;;8.95;6.95;;;12.80;99.90;;;;;;5122581;27;20068;-62
2020/12/22 00:05:11;;;;;;;10.48;7.63;;;12.90;99.90;;;;;;5114879;27;20098;-61
2020/12/22 00:07:37;;;;;;;9.18;6.75;;;12.80;99.90;;;;;;5105146;28;20026;-62
2020/12/22 00:10:04;;;;;;;9.65;5.97;;;12.80;99.90;;;;;;5103039;28;20369;-60
2020/12/22 00:12:30;;;;;;;7.30;6.25;;;12.80;99.90;;;;;;5117151;27;20020;-61
2020/12/22 00:14:55;;;;;;;10.57;7.55;;;12.80;99.90;;;;;;5115866;27;20031;-60
2020/12/22 00:17:21;;;;;;;8.30;6.55;;;12.80;99.90;;;;;;5112126;27;20039;-62
2020/12/22 00:19:47;;;;;;;7.95;7.05;;;12.70;99.90;;;;;;5110438;27;20063;-64
2020/12/22 00:22:12;;;;;;;11.70;7.55;;;12.80;99.90;;;;;;5113481;27;20047;-62
2020/12/22 00:24:38;;;;;;;8.63;6.75;;;12.80;99.90;;;;;;5117088;27;20015;-61
2020/12/22 00:27:03;;;;;;;6.78;6.07;;;12.80;99.90;;;;;;5109325;27;20054;-60
2020/12/22 00:29:29;;;;;;;7.47;5.32;;;12.80;99.90;;;;;;5115757;27;20032;-63
2020/12/22 00:32:00;;;;;;;10.40;5.18;;;12.80;99.90;;;;;;5109666;28;20031;-63
2020/12/22 00:34:29;;;;;;;4.85;3.88;;;12.80;99.90;;;;;;5105527;28;20043;-63
2020/12/22 00:36:55;;;;;;;4.22;3.75;;;12.80;99.90;;;;;;5102320;27;20079;-60
2020/12/22 00:39:20;;;;;;;4.93;3.67;;;12.80;99.90;;;;;;5107931;28;20031;-62
2020/12/22 00:41:54;;;;;;;4.13;3.72;;;12.80;99.90;;;;;;5109135;28;20481;-62
2020/12/22 00:44:20;;;;;;;5.68;3.95;;;12.70;99.90;;;;;;5093344;28;20036;-62
2020/12/22 00:46:46;;;;;;;6.50;4.00;;;12.80;99.90;;;;;;5104613;28;20118;-62
2020/12/22 00:49:11;;;;;;;5.55;4.68;;;12.70;99.90;;;;;;5109257;27;20169;-65
2020/12/22 00:51:37;;;;;;;5.78;4.07;;;12.70;99.90;;;;;;5108885;28;20047;-62
2020/12/22 00:54:02;;;;;;;6.63;4.95;;;12.70;99.90;;;;;;5107714;28;20031;-62
2020/12/22 00:56:28;;;;;;;7.85;5.47;;;12.70;99.90;;;;;;5109105;27;20126;-60
2020/12/22 00:58:54;;;;;;;8.52;6.00;;;12.70;99.90;;;;;;5109007;28;20023;-60
2020/12/22 01:01:19;;;;;;;9.50;5.88;;;12.80;99.90;;;;;;5116604;27;20046;-60
2020/12/22 01:03:48;;;;;;;8.55;6.63;;;12.70;99.90;;;;;;5107441;28;20042;-60
2020/12/22 01:06:17;;;;;;;10.05;6.00;;;12.80;99.90;;;;;;5105067;28;20031;-62
2020/12/22 01:08:43;;;;;;;5.68;5.00;;;12.70;99.90;;;;;;5110345;27;20027;-61
2020/12/22 01:11:09;;;;;;;6.50;4.95;;;12.80;99.90;;;;;;5107218;28;20023;-61
2020/12/22 01:13:34;;;;;;;5.95;3.65;;;12.80;99.90;;;;;;5118952;28;20032;-62
2020/12/22 01:16:00;;;;;;;2.70;2.50;;;12.80;99.90;;;;;;5109142;27;20019;-61
2020/12/22 01:18:25;;;;;;;2.63;2.00;;;12.70;99.90;;;;;;5118532;28;20039;-61
2020/12/22 01:20:51;;;;;;;2.80;1.83;;;12.80;99.90;;;;;;5132236;27;20031;-62
2020/12/22 01:23:17;;;;;;;1.77;1.63;;;12.80;99.90;;;;;;5117737;27;20038;-62
2020/12/22 01:25:43;;;;;;;3.17;2.17;;;12.80;99.90;;;;;;5100780;27;20043;-62
2020/12/22 01:28:09;;;;;;;1.67;1.58;;;12.80;99.90;;;;;;5102981;28;20473;-61
2020/12/22 01:30:37;;;;;;;3.05;1.73;;;12.80;99.90;;;;;;5102073;28;20274;-62
2020/12/22 01:33:04;;;;;;;1.80;1.70;;;12.80;99.90;;;;;;5099525;28;20020;-61
2020/12/22 01:35:29;;;;;;;1.20;1.10;;;12.80;99.90;;;;;;5107941;28;20020;-62
2020/12/22 01:37:55;;;;;;;5.20;1.88;;;12.90;99.90;;;;;;5101277;28;20318;-61
2020/12/22 01:40:20;;;;;;;1.50;1.20;;;12.90;99.90;;;;;;5104640;28;20035;-60
2020/12/22 01:42:46;;;;;;;2.47;2.28;;;12.90;99.90;;;;;;5107956;28;20118;-61
2020/12/22 01:45:12;;;;;;;2.83;1.50;;;12.90;99.90;;;;;;5108664;28;20090;-61
2020/12/22 01:47:49;;;;;;;2.00;1.60;;;12.90;99.90;;;;;;5097907;28;20077;-61
2020/12/22 01:50:16;;;;;;;2.65;2.03;;;12.90;99.90;;;;;;5110469;28;20026;-61
2020/12/22 01:52:42;;;;;;;2.83;2.10;;;12.90;99.90;;;;;;5112758;28;20144;-61
2020/12/22 01:55:08;;;;;;;2.15;1.77;;;12.90;99.90;;;;;;5111716;28;20413;-61
2020/12/22 01:57:34;;;;;;;3.67;2.47;;;12.80;99.90;;;;;;5110815;28;20042;-62
2020/12/22 02:00:00;;;;;;;7.80;2.58;;;12.80;99.90;;;;;;5111665;28;20081;-62
2020/12/22 02:02:26;;;;;;;6.32;2.58;;;12.80;99.90;;;;;;5109710;28;20416;-62
2020/12/22 02:04:53;;;;;;;5.15;2.38;;;12.80;99.90;;;;;;5092931;28;20036;-61
2020/12/22 02:07:19;;;;;;;4.53;2.13;;;12.80;99.90;;;;;;5108548;28;20412;-62
2020/12/22 02:09:49;;;;;;;2.55;2.35;;;12.80;99.90;;;;;;5106340;27;20519;-62
2020/12/22 02:12:17;;;;;;;4.82;2.90;;;12.80;99.90;;;;;;5105435;28;20309;-62
2020/12/22 02:14:43;;;;;;;6.18;3.30;;;12.80;99.90;;;;;;5106100;28;20097;-63
2020/12/22 02:17:09;;;;;;;5.40;3.70;;;12.80;99.90;;;;;;5100456;27;20036;-61
2020/12/22 02:19:36;;;;;;;4.65;3.17;;;12.80;99.90;;;;;;5096789;27;20033;-60
2020/12/22 02:22:01;;;;;;;4.20;3.50;;;12.90;99.90;;;;;;5104572;28;20130;-61
2020/12/22 02:24:27;;;;;;;4.20;3.75;;;12.80;99.90;;;;;;5111258;28;20544;-62
2020/12/22 02:26:52;;;;;;;6.25;4.38;;;12.80;99.90;;;;;;5113638;28;20079;-61
2020/12/22 02:29:18;;;;;;;5.75;4.00;;;12.80;99.90;;;;;;5112638;28;20134;-61
2020/12/22 02:31:44;;;;;;;4.60;3.83;;;12.70;99.90;;;;;;5131006;28;20055;-61
2020/12/22 02:34:09;;;;;;;6.45;3.53;;;12.80;99.90;;;;;;5130242;28;20004;-61
2020/12/22 02:36:35;;;;;;;7.35;3.92;;;12.70;99.90;;;;;;5115689;28;20035;-60
2020/12/22 02:39:01;;;;;;;5.97;2.88;;;12.70;99.90;;;;;;5107426;28;20431;-61
2020/12/22 02:41:27;;;;;;;7.15;2.88;;;12.70;99.90;;;;;;5107150;27;20031;-61
2020/12/22 02:43:52;;;;;;;2.97;2.03;;;12.80;99.90;;;;;;5115252;27;20088;-61
2020/12/22 02:46:18;;;;;;;4.70;1.65;;;12.70;99.90;;;;;;5108216;28;20127;-61
2020/12/22 02:48:43;;;;;;;4.68;2.15;;;12.80;99.90;;;;;;5109584;28;20032;-61
2020/12/22 02:51:09;;;;;;;5.78;1.80;;;12.80;99.90;;;;;;5112451;28;20107;-60
2020/12/22 02:53:34;;;;;;;3.40;1.88;;;12.80;99.90;;;;;;5112665;28;20024;-60
2020/12/22 02:56:00;;;;;;;5.85;2.42;;;12.80;99.90;;;;;;5100748;28;20028;-61
2020/12/22 02:58:25;;;;;;;4.70;1.73;;;12.70;99.90;;;;;;5102452;28;20038;-61
2020/12/22 03:00:51;;;;;;;6.28;1.73;;;12.70;99.90;;;;;;5110070;28;20106;-62
2020/12/22 03:03:16;;;;;;;4.93;1.98;;;12.70;99.90;;;;;;5110126;28;20407;-62
2020/12/22 03:05:42;;;;;;;7.20;2.05;;;12.70;99.90;;;;;;5103234;27;20533;-64
2020/12/22 03:08:09;;;;;;;4.38;1.60;;;12.70;99.90;;;;;;5111733;28;20465;-62
2020/12/22 03:10:35;;;;;;;6.70;2.03;;;12.60;99.90;;;;;;5111222;28;20278;-62
2020/12/22 03:13:00;;;;;;;2.83;1.83;;;12.70;99.90;;;;;;5102170;28;20409;-62
2020/12/22 03:15:26;;;;;;;9.38;1.90;;;12.60;99.90;;;;;;5116410;27;20485;-62
2020/12/22 03:17:51;;;;;;;8.90;2.15;;;12.60;99.90;;;;;;5112252;28;20042;-62
2020/12/22 03:20:17;;;;;;;14.38;2.08;;;12.60;99.90;;;;;;5111722;28;20024;-62
2020/12/22 03:22:43;;;;;;;7.53;2.30;;;12.60;99.90;;;;;;5111467;27;20414;-62
2020/12/22 03:25:11;;;;;;;3.67;1.80;;;12.60;99.90;;;;;;5121274;27;20031;-62
2020/12/22 03:27:37;;;;;;;11.77;2.50;;;12.60;99.90;;;;;;5118311;27;20046;-62
2020/12/22 03:30:06;;;;;;;10.68;1.42;;;12.60;99.90;;;;;;5103180;28;20051;-62
2020/12/22 03:32:31;;;;;;;4.63;1.52;;;12.60;99.90;;;;;;5119771;27;20022;-61
2020/12/22 03:34:57;;;;;;;3.55;1.42;;;12.60;99.90;;;;;;5120823;27;20016;-62
2020/12/22 03:37:23;;;;;;;10.52;1.55;;;12.60;99.90;;;;;;5111698;27;20059;-60
2020/12/22 03:39:53;;;;;;;5.07;1.52;;;12.60;99.90;;;;;;5123508;27;20047;-62
2020/12/22 03:42:19;;;;;;;4.57;1.30;;;12.60;99.90;;;;;;5099886;28;20080;-63
2020/12/22 03:44:47;;;;;;;6.25;1.67;;;12.60;99.90;;;;;;5108001;28;20048;-61
2020/12/22 03:47:13;;;;;;;7.18;1.83;;;12.60;99.90;;;;;;5109249;28;20404;-62
2020/12/22 03:49:39;;;;;;;10.52;1.23;;;12.60;99.90;;;;;;5109997;28;20016;-61
2020/12/22 03:52:05;;;;;;;8.30;1.20;;;12.60;99.90;;;;;;5107209;28;20097;-61
2020/12/22 03:54:32;;;;;;;4.60;0.98;;;12.60;99.90;;;;;;5110083;28;20076;-62
2020/12/22 03:56:57;;;;;;;5.97;1.40;;;12.60;99.90;;;;;;5110662;28;20027;-62
2020/12/22 03:59:23;;;;;;;9.88;1.17;;;12.60;99.90;;;;;;5110861;27;20024;-61
2020/12/22 04:01:52;;;;;;;10.48;2.63;;;12.60;99.90;;;;;;5106617;28;20443;-62
2020/12/22 04:04:22;;;;;;;5.68;1.15;;;12.60;99.90;;;;;;5101932;28;20058;-63
2020/12/22 04:06:48;;;;;;;7.90;1.70;;;12.60;99.90;;;;;;5106804;28;20031;-61
2020/12/22 04:09:17;;;;;;;10.85;1.17;;;12.60;99.90;;;;;;5108983;28;20023;-62
2020/12/22 04:11:43;;;;;;;11.27;1.35;;;12.60;99.90;;;;;;5103952;28;20080;-61
2020/12/22 04:14:09;;;;;;;4.07;1.15;;;12.60;99.90;;;;;;5106770;28;20427;-61
2020/12/22 04:16:39;;;;;;;2.53;1.00;;;12.60;99.90;;;;;;5101486;28;20032;-61
2020/12/22 04:19:05;;;;;;;3.50;0.85;;;12.60;99.90;;;;;;5109350;28;20050;-60
2020/12/22 04:21:32;;;;;;;9.15;1.30;;;12.60;99.90;;;;;;5108408;27;20028;-61
2020/12/22 04:23:58;;;;;;;6.05;1.42;;;12.60;99.90;;;;;;5107563;28;20031;-63
2020/12/22 04:26:24;;;;;;;8.25;1.38;;;12.60;99.90;;;;;;5106662;27;20038;-61
2020/12/22 04:28:49;;;;;;;7.90;1.75;;;12.60;99.90;;;;;;5111494;27;20020;-62
2020/12/22 04:31:15;;;;;;;9.35;1.90;;;12.60;99.90;;;;;;5111533;27;20027;-62
2020/12/22 04:33:40;;;;;;;8.85;1.27;;;12.60;99.90;;;;;;5117451;27;20035;-61
2020/12/22 04:36:06;;;;;;;8.93;1.60;;;12.60;99.90;;;;;;5121095;27;20473;-60
2020/12/22 04:38:32;;;;;;;5.63;0.90;;;12.60;99.90;;;;;;5125625;27;20341;-62
2020/12/22 04:41:00;;;;;;;6.28;1.13;;;12.60;99.90;;;;;;5118770;27;20027;-61
2020/12/22 04:43:27;;;;;;;7.25;1.42;;;12.60;99.90;;;;;;5119841;27;20444;-61
2020/12/22 04:45:59;;;;;;;13.55;1.50;;;12.60;99.90;;;;;;5114127;27;20038;-62
2020/12/22 04:48:25;;;;;;;4.45;1.20;;;12.60;99.90;;;;;;5112273;27;20454;-61
2020/12/22 04:50:52;;;;;;;6.95;1.45;;;12.60;99.90;;;;;;5125644;27;20029;-61
2020/12/22 04:53:18;;;;;;;10.48;2.20;;;12.60;99.90;;;;;;5124842;27;20488;-60
2020/12/22 04:55:43;;;;;;;9.50;1.52;;;12.60;99.90;;;;;;5115418;27;20033;-60
2020/12/22 04:58:10;;;;;;;14.30;1.70;;;12.60;99.90;;;;;;5119455;27;20059;-60
2020/12/22 05:00:35;;;;;;;10.30;2.03;;;12.50;99.90;;;;;;5114467;27;20146;-60
2020/12/22 05:03:04;;;;;;;10.25;1.40;;;12.50;99.90;;;;;;5124530;27;20061;-61
2020/12/22 05:05:30;;;;;;;16.80;1.77;;;12.50;99.90;;;;;;5112053;27;20446;-60
2020/12/22 05:07:56;;;;;;;5.90;1.40;;;12.50;99.90;;;;;;5107525;27;20544;-60
2020/12/22 05:10:23;;;;;;;10.23;1.65;;;12.50;99.90;;;;;;5119694;27;20024;-60
2020/12/22 05:12:49;;;;;;;10.00;1.80;;;12.50;99.90;;;;;;5115985;27;20016;-60
2020/12/22 05:15:14;;;;;;;10.43;1.40;;;12.50;99.90;;;;;;5109733;27;20303;-60
2020/12/22 05:17:46;;;;;;;9.52;1.92;;;12.50;99.90;;;;;;5108570;27;20038;-60
2020/12/22 05:20:16;;;;;;;9.00;1.40;;;12.40;99.90;;;;;;5119102;27;20087;-60
2020/12/22 05:22:47;;;;;;;13.35;1.75;;;12.50;99.90;;;;;;5111296;27;20035;-61
2020/12/22 05:25:17;;;;;;;7.72;1.48;;;12.50;99.90;;;;;;5101751;28;20016;-60
2020/12/22 05:27:46;;;;;;;8.38;1.40;;;12.50;99.90;;;;;;5107706;28;20023;-61
2020/12/22 05:30:16;;;;;;;10.52;1.40;;;12.40;99.90;;;;;;5115646;28;20422;-61
2020/12/22 05:32:43;;;;;;;9.30;1.85;;;12.40;99.90;;;;;;5119084;28;20026;-60
2020/12/22 05:35:12;;;;;;;12.05;1.92;;;12.40;99.90;;;;;;5118409;28;20020;-62
2020/12/22 05:37:41;;;;;;;16.73;2.35;;;12.40;99.90;;;;;;5106033;28;20498;-60
2020/12/22 05:40:10;;;;;;;11.90;1.95;;;12.40;99.90;;;;;;5109192;28;20023;-62
2020/12/22 05:42:37;;;;;;;10.50;1.88;;;12.40;99.90;;;;;;5110280;28;20050;-61
2020/12/22 05:45:06;;;;;;;10.00;1.58;;;12.40;99.90;;;;;;5123608;28;20094;-60
2020/12/22 05:47:32;;;;;;;11.07;1.85;;;12.40;99.90;;;;;;5106430;28;20238;-60
2020/12/22 05:49:59;;;;;;;15.13;2.28;;;12.40;99.90;;;;;;5104170;28;20034;-60
2020/12/22 05:52:26;;;;;;;11.07;1.67;;;12.40;99.90;;;;;;5118268;28;20031;-62
2020/12/22 05:54:54;;;;;;;13.10;1.98;;;12.40;99.90;;;;;;5119493;28;20157;-62
2020/12/22 05:57:27;;;;;;;12.38;2.03;;;12.40;99.90;;;;;;5102739;28;20047;-61
2020/12/22 05:59:54;;;;;;;16.90;2.17;;;12.30;99.90;;;;;;5112848;28;20030;-60
2020/12/22 06:02:24;;;;;;;18.80;2.67;;;12.30;99.90;;;;;;5110051;28;20027;-62
2020/12/22 06:05:01;;;;;;;9.68;1.85;;;12.30;99.90;;;;;;5118588;28;20480;-61
2020/12/22 06:07:27;;;;;;;11.05;1.35;;;12.30;99.90;;;;;;5137534;28;20039;-61
2020/12/22 06:09:54;;;;;;;11.52;1.55;;;12.30;99.90;;;;;;5134002;28;20035;-63
2020/12/22 06:12:21;;;;;;;10.55;2.20;;;12.30;99.90;;;;;;5128273;28;20511;-62
2020/12/22 06:14:48;;;;;;;16.08;2.45;;;12.30;99.90;;;;;;5111590;28;20023;-61
2020/12/22 06:17:14;;;;;;;20.55;2.65;;;12.30;99.90;;;;;;5095650;28;20032;-61
2020/12/22 06:19:41;;;;;;;6.78;1.70;;;12.20;99.90;;;;;;5111707;28;20027;-62
2020/12/22 06:22:15;;;;;;;11.73;1.38;;;12.20;99.90;;;;;;5117082;28;20027;-64
2020/12/22 06:24:42;;;;;;;16.10;2.45;;;12.20;99.90;;;;;;5121003;28;20027;-60
2020/12/22 06:27:10;;;;;;;11.10;1.42;;;12.20;99.90;;;;;;5110809;28;20069;-61
2020/12/22 06:29:40;;;;;;;5.28;1.10;;;12.20;99.90;;;;;;5121348;28;20015;-62
2020/12/22 06:32:17;;;;;;;12.60;2.22;;;12.20;99.90;;;;;;5109287;28;20329;-61
2020/12/22 06:34:46;;;;;;;8.10;1.15;;;12.20;99.90;;;;;;5113967;27;20079;-60
2020/12/22 06:37:12;;;;;;;9.10;1.55;;;12.20;99.90;;;;;;5114221;27;21095;-61
2020/12/22 06:39:45;;;;;;;8.27;1.42;;;12.20;99.90;;;;;;5127221;27;20023;-61
2020/12/22 06:42:31;;;;;;;7.35;1.67;;;12.20;99.90;;;;;;5118382;27;20030;-63
2020/12/22 06:45:36;;;;;;;12.60;2.38;;;12.20;99.90;;;;;;5125857;27;20668;-59
2020/12/22 06:48:01;;;;;;;10.30;1.33;;;12.20;99.90;;;;;;5060920;28;20039;-63
2020/12/22 06:50:43;;;;;;;9.50;1.30;;;12.20;99.90;;;;;;5061040;28;20025;-61
2020/12/22 06:53:41;;;;;;;16.00;1.95;;;12.20;99.90;;;;;;5095396;27;20023;-61
2020/12/22 06:56:07;;;;;;;11.45;1.88;;;12.10;99.90;;;;;;5114292;27;20023;-61
2020/12/22 06:58:40;;;;;;;16.52;2.50;;;12.10;99.90;;;;;;5123621;28;20031;-60
2020/12/22 07:01:24;;;;;;;12.30;2.30;;;12.10;99.90;;;;;;5125076;28;20064;-60
2020/12/22 07:03:50;;;;;;;12.57;1.77;;;12.10;99.90;;;;;;5123833;27;20023;-60
2020/12/22 07:06:42;;;;;;;19.65;2.28;;;12.10;99.90;;;;;;5141513;27;20564;-63
2020/12/22 07:09:14;;;;;;;19.42;3.20;;;12.10;99.90;;;;;;5128015;27;20004;-61
2020/12/22 07:11:40;;;;;;;;;;;12.00;99.90;;;;;;5136222;27;20039;-60
2020/12/22 07:14:07;;;;;;;17.92;3.25;;;12.00;99.90;;;;;;5138219;27;19943;-61
2020/12/22 07:16:50;;;;;;;16.55;2.58;;;12.00;99.90;;;;;;5112843;27;20027;-61
2020/12/22 07:19:21;;;;;;;19.98;2.83;;;11.90;99.90;;;;;;5116677;27;20042;-63
2020/12/22 07:21:47;;;;;;;16.85;2.78;;;12.00;99.90;;;;;;5127293;27;20051;-62
2020/12/22 07:24:13;;;;;;;18.17;3.00;;;12.00;99.90;;;;;;5115830;27;20111;-60
2020/12/22 07:26:40;;;;;;;20.98;3.17;;;12.00;99.90;;;;;;5117291;27;20027;-61
2020/12/22 07:29:06;;;;;;;18.92;3.05;;;12.00;99.90;;;;;;5107365;28;20031;-59
2020/12/22 07:31:34;;;;;;;19.83;2.72;;;12.00;99.90;;;;;;5123419;27;20025;-62
2020/12/22 07:34:06;;;;;;;16.02;3.17;;;12.00;99.90;;;;;;5109755;27;20028;-63
2020/12/22 07:36:33;;;;;;;19.42;3.03;;;12.00;99.90;;;;;;5113370;27;20033;-61
2020/12/22 07:39:20;;;;;;;16.15;3.17;;;12.00;99.90;;;;;;5120888;27;20123;-61
2020/12/22 07:41:46;;;;;;;17.30;2.53;;;12.00;99.90;;;;;;5118552;27;20050;-60
2020/12/22 07:44:19;;;;;;;26.00;3.05;;;12.10;99.90;;;;;;5123167;27;20488;-60
2020/12/22 07:46:47;;;;;;;21.95;2.63;;;12.00;99.90;;;;;;5122379;27;20778;-60
2020/12/22 07:49:13;;;;;;;16.13;2.22;;;12.00;99.90;;;;;;5114590;27;20496;-61
2020/12/22 07:51:47;;;;;;;18.92;3.03;;;12.00;99.90;;;;;;5122131;27;20027;-61
2020/12/22 07:54:13;;;;;;;15.85;2.78;;;12.10;99.90;;;;;;5128456;27;20054;-60
2020/12/22 07:56:41;;;;;;;18.90;2.70;;;12.20;99.90;;;;;;5124723;27;20020;-59
2020/12/22 07:59:09;;;;;;;11.57;2.65;;;12.10;99.90;;;;;;5123199;27;20064;-61
2020/12/22 08:01:53;;;;;;;15.48;2.47;;;12.20;99.90;;;;;;5123172;27;20046;-61
2020/12/22 08:04:21;;;;;;;24.58;2.72;;;12.20;99.90;;;;;;5105150;28;20121;-61
2020/12/22 08:07:01;;;;;;;12.98;2.15;;;12.20;99.90;;;;;;5113672;28;20550;-60
2020/12/22 08:09:30;;;;;;;13.73;2.00;;;12.20;99.90;;;;;;5109442;27;20022;-62
2020/12/22 08:11:58;;;;;;;15.25;2.67;;;12.20;99.90;;;;;;5107763;27;20023;-61
2020/12/22 08:14:24;;;;;;;12.68;2.25;;;12.20;99.90;;;;;;5127524;27;20023;-60
2020/12/22 08:16:53;;;;;;;13.75;1.70;;;12.20;99.90;;;;;;5120662;27;20159;-59
2020/12/22 08:19:20;;;;;;;15.55;2.65;;;12.20;99.90;;;;;;5111648;28;20224;-59
2020/12/22 08:21:47;;;;;;;22.15;3.83;;;12.20;99.90;;;;;;5116120;27;20570;-60
2020/12/22 08:24:18;;;;;;;16.15;3.15;;;12.20;99.90;;;;;;5115463;27;20633;-61
2020/12/22 08:26:47;;;;;;;23.83;3.15;;;12.10;99.90;;;;;;5113353;27;20029;-61
2020/12/22 08:29:14;;;;;;;20.08;3.38;;;12.10;99.90;;;;;;5107689;27;20027;-60
2020/12/22 08:31:42;;;;;;;16.85;2.90;;;12.10;99.90;;;;;;5118805;27;20124;-60
2020/12/22 08:34:10;;;;;;;20.05;2.92;;;12.10;99.90;;;;;;5115017;27;20476;-61
2020/12/22 08:36:36;;;;;;;19.58;2.95;;;12.10;99.90;;;;;;5113498;27;20016;-61
2020/12/22 08:39:16;;;;;;;16.98;2.78;;;12.10;99.90;;;;;;5128549;27;20454;-61
2020/12/22 08:41:43;;;;;;;16.85;3.65;;;12.10;99.90;;;;;;5110899;27;20504;-61
2020/12/22 08:44:10;;;;;;;13.43;2.53;;;12.10;99.90;;;;;;5111304;27;20071;-61
2020/12/22 08:46:37;;;;;;;15.13;1.92;;;12.10;99.90;;;;;;5110606;27;20106;-60
2020/12/22 08:49:25;;;;;;;24.98;3.17;;;12.10;99.90;;;;;;5104860;27;20025;-60
2020/12/22 08:51:56;;;;;;;22.35;3.17;;;12.10;99.90;;;;;;5110167;27;20072;-62
2020/12/22 08:54:25;;;;;;;16.25;2.40;;;12.10;99.90;;;;;;5118915;27;20027;-61
2020/12/22 08:56:51;;;;;;;20.08;2.88;;;12.10;99.90;;;;;;5114906;27;20038;-61
2020/12/22 08:59:26;;;;;;;17.85;2.38;;;12.10;99.90;;;;;;5104616;28;20028;-61
2020/12/22 09:01:52;;;;;;;15.57;2.38;;;12.10;99.90;;;;;;5103696;28;20016;-61
2020/12/22 09:04:28;;;;;;;13.70;2.38;;;12.10;99.90;;;;;;5110273;28;20023;-61
2020/12/22 09:06:54;;;;;;;23.63;2.40;;;12.10;99.90;;;;;;5109649;28;20021;-61
2020/12/22 09:09:27;;;;;;;15.43;2.28;;;12.00;99.90;;;;;;5109089;28;20501;-60
2020/12/22 09:12:06;;;;;;;17.48;2.20;;;12.00;99.90;;;;;;5102673;28;20012;-60
2020/12/22 09:14:46;;;;;;;13.40;2.45;;;12.00;99.90;;;;;;5109561;28;20020;-63
2020/12/22 09:17:13;;;;;;;17.40;2.83;;;12.00;99.90;;;;;;5103127;28;20495;-61
2020/12/22 09:19:49;;;;;;;20.88;2.67;;;11.90;99.90;;;;;;5101567;28;20055;-60
2020/12/22 09:22:20;;;;;;;15.30;2.83;;;11.90;99.90;;;;;;5110591;28;20023;-61
2020/12/22 09:24:54;;;;;;;22.40;2.72;;;11.90;99.90;;;;;;5099523;28;20092;-60
2020/12/22 09:27:39;;;;;;;18.75;2.25;;;11.90;99.90;;;;;;5111589;28;20496;-61
2020/12/22 09:30:06;;;;;;;20.40;2.72;;;11.80;99.90;;;;;;5109875;28;20432;-60
2020/12/22 09:32:32;;;;;;;23.05;3.10;;;11.70;99.90;;;;;;5122208;28;20048;-60
2020/12/22 09:34:58;;;;;;;22.00;2.70;;;11.70;99.90;;;;;;5126301;28;20095;-60
2020/12/22 09:37:24;;;;;;;25.67;2.97;;;11.70;99.90;;;;;;5116878;28;20180;-60
2020/12/22 09:39:50;;;;;;;23.67;3.17;;;11.70;99.90;;;;;;5111267;28;20027;-60
2020/12/22 09:42:17;;;;;;;32.50;3.97;;;11.70;99.90;;;;;;5107704;28;20450;-61
2020/12/22 09:44:43;;;;;;;31.25;3.10;;;11.60;99.90;;;;;;5110556;28;20492;-61
2020/12/22 09:47:09;;;;;;;19.27;2.83;;;11.70;99.90;;;;;;5110200;28;20089;-60
2020/12/22 09:49:34;;;;;;;17.30;3.15;;;11.70;99.90;;;;;;5108843;28;21397;-61
2020/12/22 09:52:00;;;;;;;18.30;2.85;;;11.70;99.90;;;;;;5110105;28;20027;-61
2020/12/22 09:54:26;;;;;;;25.23;3.67;;;11.60;99.90;;;;;;5107619;28;20102;-60
2020/12/22 09:56:51;;;;;;;24.05;3.53;;;11.70;99.90;;;;;;5108409;28;20096;-61
2020/12/22 09:59:17;;;;;;;19.25;3.30;;;11.70;99.90;;;;;;5110110;28;20036;-60
2020/12/22 10:01:44;;;;;;;24.48;3.75;;;11.80;99.90;;;;;;5110001;28;20107;-61
2020/12/22 10:04:11;;;;;;;24.88;3.42;;;11.80;99.90;;;;;;5113303;28;20015;-60
2020/12/22 10:06:36;;;;;;;34.38;4.05;;;11.70;99.90;;;;;;5108245;28;20027;-61
2020/12/22 10:09:03;;;;;;;25.45;4.00;;;11.60;99.90;;;;;;5108067;28;20034;-59
2020/12/22 10:11:31;;;;;;;28.30;4.30;;;11.60;99.90;;;;;;5113087;28;20020;-61
2020/12/22 10:13:57;;;;;;;18.23;3.45;;;11.50;99.90;;;;;;5110900;28;20023;-58
2020/12/22 10:16:23;;;;;;;15.60;2.78;;;11.50;99.90;;;;;;5114976;28;20028;-62
2020/12/22 10:18:49;;;;;;;19.98;3.00;;;11.40;99.90;;;;;;5113836;28;20503;-61
2020/12/22 10:21:17;;;;;;;25.83;2.47;;;11.30;99.90;;;;;;5112120;28;20042;-61
2020/12/22 10:23:44;;;;;;;18.23;2.92;;;11.30;99.90;;;;;;5114263;28;20023;-60
2020/12/22 10:26:12;;;;;;;16.15;3.40;;;11.40;99.90;;;;;;5118447;28;20019;-60
2020/12/22 10:28:40;;;;;;;18.08;4.00;;;11.30;99.90;;;;;;5114850;28;20047;-62
2020/12/22 10:31:10;;;;;;;28.30;3.42;;;11.30;99.90;;;;;;5113824;28;20046;-61
2020/12/22 10:33:35;;;;;;;28.45;3.72;;;11.30;99.90;;;;;;5113853;28;20103;-60
2020/12/22 10:36:00;;;;;;;14.57;3.85;;;11.30;99.90;;;;;;5115214;28;20048;-60
2020/12/22 10:38:26;;;;;;;24.65;2.85;;;11.20;99.90;;;;;;5114015;27;20032;-61
2020/12/22 10:40:52;;;;;;;12.57;3.20;;;11.20;99.90;;;;;;5112468;27;20039;-61
2020/12/22 10:43:17;;;;;;;18.05;3.97;;;11.10;99.90;;;;;;5126809;27;20040;-59
2020/12/22 10:45:43;;;;;;;12.57;3.72;;;11.10;99.90;;;;;;5125112;27;20031;-60
2020/12/22 10:48:08;;;;;;;8.07;3.58;;;10.90;99.90;;;;;;5115398;27;20027;-61
2020/12/22 10:50:38;;;;;;;10.88;4.20;;;10.70;99.90;;;;;;5122772;27;20011;-60
2020/12/22 10:53:05;;;;;;;15.13;4.20;;;10.60;99.90;;;;;;5121415;27;20020;-60
2020/12/22 10:55:30;;;;;;;12.77;4.45;;;10.60;99.90;;;;;;5122382;27;20027;-60
2020/12/22 10:57:56;;;;;;;16.02;5.07;;;10.50;99.90;;;;;;5114149;27;20023;-61
2020/12/22 11:00:21;;;;;;;11.90;5.40;;;10.50;99.90;;;;;;5103776;27;20598;-61
2020/12/22 11:02:49;;;;;;;14.13;5.50;;;10.50;99.90;;;;;;5120465;27;20350;-61
2020/12/22 11:05:15;;;;;;;15.20;6.32;;;10.50;99.90;;;;;;5110775;28;20027;-62
2020/12/22 11:07:49;;;;;;;11.77;6.50;;;10.50;99.90;;;;;;5119358;27;20019;-61
2020/12/22 11:10:14;;;;;;;21.20;7.18;;;10.50;99.90;;;;;;5112473;28;20124;-63
2020/12/22 11:12:41;;;;;;;22.23;6.45;;;10.50;99.90;;;;;;5117238;27;20502;-61
2020/12/22 11:15:07;;;;;;;14.30;6.68;;;10.60;99.90;;;;;;5113664;27;20034;-59
2020/12/22 11:17:33;;;;;;;18.42;7.28;;;10.50;99.90;;;;;;5111398;28;20027;-60
2020/12/22 11:19:59;;;;;;;14.85;6.95;;;10.50;99.90;;;;;;5118080;27;20034;-60
2020/12/22 11:22:25;;;;;;;18.98;7.10;;;10.50;99.90;;;;;;5111349;28;20015;-61
2020/12/22 11:24:50;;;;;;;21.80;6.68;;;10.60;99.90;;;;;;5111804;28;20389;-62
2020/12/22 11:27:16;;;;;;;12.45;6.07;;;10.60;99.90;;;;;;5105555;27;20072;-60
2020/12/22 11:29:43;;;;;;;27.77;7.15;;;10.50;99.90;;;;;;5113923;27;20019;-60
2020/12/22 11:32:09;;;;;;;18.65;6.22;;;10.50;99.90;;;;;;5115917;27;20031;-61
2020/12/22 11:34:36;;;;;;;21.85;6.75;;;10.40;99.90;;;;;;5124940;27;20039;-60
2020/12/22 11:37:02;;;;;;;23.73;7.50;;;10.50;99.90;;;;;;5119863;27;20023;-60
2020/12/22 11:39:27;;;;;;;15.25;6.35;;;10.60;99.90;;;;;;5125297;27;20035;-60
2020/12/22 11:41:58;;;;;;;18.67;6.05;;;10.70;99.90;;;;;;5116254;27;20020;-60
2020/12/22 11:44:24;;;;;;;13.85;5.53;;;10.60;99.90;;;;;;5116531;27;20524;-60
2020/12/22 11:46:49;;;;;;;25.60;6.47;;;10.60;99.90;;;;;;5112050;27;20047;-59
2020/12/22 11:49:15;;;;;;;18.33;5.55;;;10.60;99.90;;;;;;5112814;27;20064;-59
2020/12/22 11:51:41;;;;;;;16.83;5.97;;;10.60;99.90;;;;;;5116058;28;20382;-60
2020/12/22 11:54:06;;;;;;;17.88;5.60;;;10.50;99.90;;;;;;5112691;27;20030;-61
2020/12/22 11:56:32;;;;;;;31.67;6.30;;;10.60;99.90;;;;;;5111321;28;20078;-61
2020/12/22 11:58:58;;;;;;;17.75;5.45;;;10.60;99.90;;;;;;5089760;28;20073;-60
2020/12/22 12:01:30;;;;;;;16.02;5.18;;;10.60;99.90;;;;;;5108356;27;20027;-61
2020/12/22 12:03:55;;;;;;;13.35;5.55;;;10.60;99.90;;;;;;5112657;27;20015;-61
2020/12/22 12:06:23;;;;;;;9.68;4.80;;;10.70;99.90;;;;;;5110120;28;20707;-60
2020/12/22 12:08:49;;;;;;;14.82;5.57;;;10.80;99.90;;;;;;5115867;27;20481;-62
2020/12/22 12:11:15;;;;;;;11.38;5.05;;;10.70;99.90;;;;;;5130626;27;20019;-61
2020/12/22 12:13:41;;;;;;;11.02;3.42;;;10.70;99.90;;;;;;5111996;27;20020;-61
2020/12/22 12:16:06;;;;;;;9.85;3.53;;;10.70;99.90;;;;;;5109564;28;20046;-61
2020/12/22 12:18:32;;;;;;;8.68;3.33;;;10.70;99.90;;;;;;5109955;28;20019;-60
2020/12/22 12:20:58;;;;;;;8.30;2.95;;;10.70;99.90;;;;;;5110533;27;20083;-60
2020/12/22 12:23:23;;;;;;;11.95;2.50;;;10.70;99.90;;;;;;5115303;27;20032;-60
2020/12/22 12:25:49;;;;;;;5.78;2.25;;;10.60;99.90;;;;;;5111858;27;20078;-61
2020/12/22 12:28:15;;;;;;;14.38;2.90;;;10.70;99.90;;;;;;5102547;28;20496;-61
2020/12/22 12:30:41;;;;;;;8.95;2.63;;;10.70;99.90;;;;;;5110354;28;20232;-61
2020/12/22 12:33:06;;;;;;;5.78;2.65;;;10.80;99.90;;;;;;5109776;28;20611;-60
2020/12/22 12:35:32;;;;;;;12.55;2.88;;;10.80;99.90;;;;;;5116782;28;20324;-59
2020/12/22 12:37:58;;;;;;;10.73;2.42;;;10.80;99.90;;;;;;5110973;28;20019;-60
2020/12/22 12:40:24;;;;;;;14.13;2.47;;;10.80;99.90;;;;;;5123086;28;20530;-61
2020/12/22 12:42:50;;;;;;;10.73;2.15;;;10.90;99.90;;;;;;5116361;28;20389;-61